Spokane/Fairchild AFB, Washington
Current Conditions -  °F | °C
As of 9:58 PM on Thursday 18 Dec 2014 (Local Time) from KSKA Reporting Station
Overcast Overcast  
Wind Chill: 33°   Ceiling: 3200
Heat Index: 37°   Visibility: 10mi
Dew Point: 37°   Wind: 5mph
Humidity: 100%   Direction: 60°ENE
Pressure: 29.92"   Gusts: NA
Location:  47.62°N, 117.65°W
Report Text: KSKA 190558Z AUTO 06004KT 10SM OVC032 03/03 A2992 RMK AO2 RAE09RAB30E42 SLP152 P0000 60000 T00270027 10039 20021 $
Loading
Personal Weather Stations






























Interactive Weather Map New forecast layout! Learn more

10-Day Weather Forecast

Advertisements
Track Severe Weather on mobile